Time;durP1;ratioP1;P1;durP2;ratioP2;P2;SDS_P1;SDS_P2;PMS_P1;PMS_P2;Temp;Humidity;BMP_temperature;BMP_pressure;BME280_temperature;BME280_humidity;BME280_pressure;Samples;Min_cycle;Max_cycle;Signal;HPM_P1;HPM_P2
2022/10/13 00:01:58;;;;;;;15.53;7.30;;;;;;;8.92;78.97;101280.33;1721932;81;21021;-76
2022/10/13 00:04:26;;;;;;;15.85;6.92;;;;;;;8.90;79.20;101280.98;1735027;81;21052;-78
2022/10/13 00:06:53;;;;;;;10.83;6.93;;;;;;;8.91;79.34;101279.97;1729916;82;21076;-77
2022/10/13 00:09:21;;;;;;;13.70;7.37;;;;;;;8.93;79.28;101280.18;1731120;81;20997;-76
2022/10/13 00:11:49;;;;;;;15.23;7.80;;;;;;;8.96;79.20;101276.37;1714228;81;21018;-78
2022/10/13 00:14:17;;;;;;;13.67;6.57;;;;;;;8.99;78.96;101276.57;1720038;81;21067;-79
2022/10/13 00:16:43;;;;;;;15.65;7.40;;;;;;;8.99;78.70;101276.57;1732344;82;21032;-78
2022/10/13 00:19:09;;;;;;;13.22;6.72;;;;;;;9.01;78.50;101271.93;1731619;81;21485;-78
2022/10/13 00:21:37;;;;;;;13.50;7.33;;;;;;;9.02;78.28;101275.73;1729860;81;21091;-77
2022/10/13 00:24:03;;;;;;;14.43;6.92;;;;;;;9.03;78.14;101273.43;1729919;81;21024;-76
2022/10/13 00:26:29;;;;;;;;;;;;;;;8.98;78.03;101269.06;1734373;82;21029;-77
2022/10/13 00:28:56;;;;;;;14.80;6.77;;;;;;;8.94;78.24;101279.67;1732041;81;20149;-78
2022/10/13 00:31:29;;;;;;;9.78;5.97;;;;;;;8.84;78.53;101275.78;1731626;82;20977;-76
2022/10/13 00:33:59;;;;;;;10.23;6.67;;;;;;;8.82;78.85;101274.28;1698651;82;21073;-78
2022/10/13 00:36:27;;;;;;;11.83;6.93;;;;;;;8.81;79.10;101273.42;1726225;81;21013;-77
2022/10/13 00:38:54;;;;;;;12.17;7.00;;;;;;;8.84;79.24;101277.62;1731967;81;21049;-77
2022/10/13 00:41:20;;;;;;;10.82;6.78;;;;;;;8.88;79.10;101282.96;1724979;82;20981;-77
2022/10/13 00:43:53;;;;;;;;;;;;;;;8.87;79.25;101271.50;1734250;81;21057;-77
2022/10/13 00:46:21;;;;;;;16.57;6.77;;;;;;;8.87;79.17;101279.95;1731766;81;20139;-77
2022/10/13 00:48:50;;;;;;;15.87;6.63;;;;;;;8.83;79.33;101279.92;1734648;79;20973;-75
2022/10/13 00:51:22;;;;;;;10.80;5.97;;;;;;;8.83;79.15;101273.27;1741612;81;20981;-77
2022/10/13 00:53:48;;;;;;;13.13;6.93;;;;;;;8.83;79.04;101272.77;1731918;81;21061;-77
2022/10/13 00:56:18;;;;;;;14.37;6.63;;;;;;;8.82;79.22;101274.28;1730759;81;20986;-79
2022/10/13 00:58:46;;;;;;;12.37;7.17;;;;;;;8.81;79.58;101268.11;1709685;82;21568;-77
2022/10/13 01:01:13;;;;;;;13.83;7.60;;;;;;;8.81;79.79;101266.77;1726346;81;21025;-78
2022/10/13 01:03:40;;;;;;;10.80;6.53;;;;;;;8.84;79.95;101268.31;1726516;81;21589;-77
2022/10/13 01:06:07;;;;;;;18.12;8.05;;;;;;;8.85;79.97;101265.47;1731253;81;21107;-76
2022/10/13 01:08:34;;;;;;;13.13;7.07;;;;;;;8.88;79.89;101268.34;1730763;81;21985;-77
2022/10/13 01:11:25;;;;;;;13.45;7.78;;;;;;;8.88;79.97;101269.16;1730035;81;21077;-78
2022/10/13 01:14:06;;;;;;;12.23;7.03;;;;;;;8.89;79.85;101268.66;1727637;81;21315;-78
2022/10/13 01:17:04;;;;;;;12.70;6.97;;;;;;;8.89;79.94;101265.53;1716903;82;22140;-77
2022/10/13 01:20:05;;;;;;;11.20;7.73;;;;;;;8.89;79.82;101265.53;1729726;82;21005;-78
2022/10/13 01:22:56;;;;;;;10.87;7.33;;;;;;;8.89;79.56;101269.98;1718778;81;20970;-78
2022/10/13 01:25:49;;;;;;;14.73;7.63;;;;;;;8.88;79.48;101265.68;1735080;81;21064;-78
2022/10/13 01:28:36;;;;;;;11.73;7.27;;;;;;;8.81;79.33;101253.98;1681693;84;21054;-79
2022/10/13 01:31:34;;;;;;;9.23;6.97;;;;;;;8.86;79.37;101258.35;1723270;82;21076;-78
2022/10/13 01:34:15;;;;;;;10.67;7.07;;;;;;;8.85;79.50;101263.31;1723683;82;21017;-77
2022/10/13 01:37:02;;;;;;;9.67;6.27;;;;;;;8.81;79.73;101262.79;1730260;82;20997;-77
2022/10/13 01:39:47;;;;;;;9.65;6.92;;;;;;;8.79;79.84;101258.13;1729842;82;21017;-77
2022/10/13 01:42:18;;;;;;;12.87;7.30;;;;;;;8.73;79.82;101259.57;1729708;81;20973;-79
2022/10/13 01:44:52;;;;;;;13.10;6.53;;;;;;;8.70;80.04;101256.38;1732111;81;21488;-79
2022/10/13 01:47:20;;;;;;;11.33;7.60;;;;;;;8.69;80.22;101252.90;1723286;81;21052;-79
2022/10/13 01:49:51;;;;;;;13.00;6.73;;;;;;;8.70;80.15;101251.06;1730033;81;20980;-78
2022/10/13 01:52:21;;;;;;;17.13;7.10;;;;;;;8.71;80.29;101254.08;1736516;81;21486;-77
2022/10/13 01:54:52;;;;;;;13.03;6.67;;;;;;;8.73;80.27;101262.23;1729227;81;21056;-77
2022/10/13 01:57:40;;;;;;;9.87;7.47;;;;;;;8.72;80.12;101254.41;1732434;81;21438;-78
2022/10/13 02:00:14;;;;;;;10.13;7.17;;;;;;;8.70;80.04;101251.92;1731156;81;21568;-76
2022/10/13 02:03:08;;;;;;;10.27;6.43;;;;;;;8.69;80.02;101253.41;1718968;81;20958;-76
2022/10/13 02:06:01;;;;;;;14.37;7.20;;;;;;;8.68;80.20;101255.23;1731925;81;22032;-78
2022/10/13 02:08:40;;;;;;;11.27;7.20;;;;;;;8.67;79.94;101260.19;1734807;81;21124;-76
2022/10/13 02:11:20;;;;;;;13.17;6.60;;;;;;;8.60;80.11;101260.45;1730858;81;21546;-76
2022/10/13 02:14:04;;;;;;;10.87;6.53;;;;;;;8.56;80.27;101249.30;1717133;81;21671;-77
2022/10/13 02:16:38;;;;;;;11.93;6.40;;;;;;;8.60;80.25;101266.27;1730160;81;21013;-77
2022/10/13 02:19:08;;;;;;;8.37;6.30;;;;;;;8.61;80.38;101257.30;1732099;81;21558;-77
2022/10/13 02:21:35;;;;;;;9.33;7.40;;;;;;;8.62;80.21;101258.48;1715699;82;21100;-76
2022/10/13 02:24:04;;;;;;;12.00;6.70;;;;;;;8.65;80.38;101262.17;1714195;81;20966;-75
2022/10/13 02:26:33;;;;;;;7.73;5.87;;;;;;;8.67;80.39;101261.52;1730952;81;21037;-77
2022/10/13 02:29:11;;;;;;;10.63;6.77;;;;;;;8.67;80.40;101265.51;1731393;81;21057;-77
2022/10/13 02:31:39;;;;;;;10.70;6.20;;;;;;;8.67;80.60;101271.33;1731668;81;20993;-77
2022/10/13 02:34:07;;;;;;;12.27;6.40;;;;;;;8.68;80.59;101265.86;1729456;81;21092;-77
2022/10/13 02:36:37;;;;;;;6.93;5.97;;;;;;;8.71;80.64;101268.70;1723097;82;22101;-79
2022/10/13 02:39:05;;;;;;;9.10;6.57;;;;;;;8.74;80.54;101271.06;1725773;82;21503;-77
2022/10/13 02:41:32;;;;;;;13.53;6.43;;;;;;;8.75;80.60;101268.73;1717187;81;21522;-78
2022/10/13 02:43:58;;;;;;;8.43;6.00;;;;;;;8.75;80.33;101268.73;1729836;81;20989;-78
2022/10/13 02:46:26;;;;;;;9.43;6.17;;;;;;;8.74;80.34;101263.91;1731165;81;21521;-79
2022/10/13 02:48:53;;;;;;;9.70;6.70;;;;;;;8.74;80.33;101260.43;1731931;81;22152;-78
2022/10/13 02:51:19;;;;;;;;;;;;;;;8.74;80.48;101262.59;1735148;81;21116;-78
2022/10/13 02:53:45;;;;;;;9.50;6.97;;;;;;;8.76;80.45;101265.92;1732260;81;20174;-78
2022/10/13 02:56:11;;;;;;;9.70;6.70;;;;;;;8.72;80.59;101265.03;1733981;81;21013;-78
2022/10/13 02:58:38;;;;;;;11.07;7.07;;;;;;;8.72;80.49;101273.01;1744434;81;21238;-77
2022/10/13 03:01:12;;;;;;;10.95;7.47;;;;;;;8.71;80.58;101260.22;1731204;81;20984;-77
2022/10/13 03:03:39;;;;;;;10.70;6.70;;;;;;;8.72;80.69;101262.38;1731526;81;20974;-76
2022/10/13 03:06:07;;;;;;;14.10;7.33;;;;;;;8.73;81.12;101264.06;1730260;81;21107;-77
2022/10/13 03:08:34;;;;;;;12.07;7.07;;;;;;;8.73;80.99;101261.41;1723283;81;21733;-76
2022/10/13 03:11:02;;;;;;;14.57;7.77;;;;;;;8.72;80.98;101260.58;1729537;81;21060;-78
2022/10/13 03:13:29;;;;;;;12.17;7.27;;;;;;;8.72;80.98;101264.56;1729148;81;21012;-77
2022/10/13 03:15:57;;;;;;;15.20;6.90;;;;;;;8.69;80.97;101259.55;1728620;82;21433;-76
2022/10/13 03:18:24;;;;;;;13.83;7.47;;;;;;;8.69;81.14;101256.89;1731985;81;21577;-76
2022/10/13 03:21:05;;;;;;;9.67;6.93;;;;;;;8.70;81.19;101253.25;1728499;81;21052;-76
2022/10/13 03:23:32;;;;;;;12.03;7.43;;;;;;;8.72;81.21;101256.59;1728884;81;21012;-77
2022/10/13 03:25:58;;;;;;;11.43;6.85;;;;;;;8.75;81.31;101262.91;1724464;81;21017;-78
2022/10/13 03:28:25;;;;;;;13.70;8.10;;;;;;;8.74;80.94;101257.27;1732030;81;21524;-77
2022/10/13 03:31:01;;;;;;;14.98;7.58;;;;;;;8.70;81.07;101261.23;1730730;81;21076;-77
2022/10/13 03:33:28;;;;;;;10.20;7.47;;;;;;;8.64;81.23;101268.46;1727085;81;21064;-77
2022/10/13 03:36:02;;;;;;;10.93;7.50;;;;;;;8.60;81.43;101271.09;1731269;81;20995;-77
2022/10/13 03:38:29;;;;;;;11.37;6.67;;;;;;;8.54;81.80;101264.56;1711133;81;21126;-77
2022/10/13 03:40:56;;;;;;;12.10;7.40;;;;;;;8.51;81.95;101268.02;1730502;82;20981;-75
2022/10/13 03:43:23;;;;;;;11.50;6.83;;;;;;;8.52;82.31;101268.37;1733526;81;20952;-75
2022/10/13 03:45:57;;;;;;;12.03;6.90;;;;;;;8.52;82.52;101266.54;1731690;81;20985;-77
2022/10/13 03:48:24;;;;;;;12.80;7.30;;;;;;;8.54;82.56;101258.42;1723765;82;21041;-76
2022/10/13 03:50:50;;;;;;;10.65;7.17;;;;;;;8.55;82.56;101268.91;1732610;81;20985;-76
2022/10/13 03:53:16;;;;;;;11.80;6.90;;;;;;;8.53;82.56;101267.36;1733243;81;21008;-75
2022/10/13 03:55:53;;;;;;;11.80;6.87;;;;;;;8.50;83.02;101274.33;1731045;81;21016;-77
2022/10/13 03:58:24;;;;;;;12.80;6.70;;;;;;;8.47;83.40;101277.28;1738231;82;21029;-77
2022/10/13 04:00:52;;;;;;;10.33;7.20;;;;;;;8.46;83.60;101272.97;1732108;80;21009;-77
2022/10/13 04:03:18;;;;;;;13.62;7.42;;;;;;;8.46;83.52;101275.62;1728134;81;21034;-77
2022/10/13 04:05:46;;;;;;;11.70;7.97;;;;;;;8.47;83.59;101281.27;1731653;81;21128;-76
2022/10/13 04:08:14;;;;;;;12.40;6.90;;;;;;;8.48;83.55;101278.46;1730150;81;21120;-76
2022/10/13 04:10:41;;;;;;;13.03;7.33;;;;;;;8.52;83.59;101280.33;1728806;81;21004;-74
2022/10/13 04:13:07;;;;;;;9.23;7.10;;;;;;;8.54;83.56;101280.50;1729178;82;21303;-76
2022/10/13 04:15:38;;;;;;;16.90;10.43;;;;;;;8.52;83.55;101279.00;1730614;81;21032;-76
2022/10/13 04:18:07;;;;;;;10.20;6.97;;;;;;;8.49;83.74;101285.94;1730596;81;21056;-76
2022/10/13 04:20:38;;;;;;;13.47;7.33;;;;;;;8.47;83.92;101282.59;1730398;81;21104;-75
2022/10/13 04:23:06;;;;;;;12.37;7.57;;;;;;;8.49;83.96;101281.95;1719235;81;21013;-75
2022/10/13 04:25:36;;;;;;;11.43;7.37;;;;;;;8.50;83.93;101285.78;1731963;81;20977;-75
2022/10/13 04:28:05;;;;;;;16.80;8.47;;;;;;;8.54;83.94;101287.66;1743965;81;21129;-76
2022/10/13 04:30:34;;;;;;;13.17;7.07;;;;;;;8.54;83.81;101277.02;1733954;81;21039;-75
2022/10/13 04:33:01;;;;;;;10.87;7.07;;;;;;;8.55;83.87;101274.22;1731754;82;20985;-75
2022/10/13 04:35:27;;;;;;;11.97;7.40;;;;;;;8.64;84.02;101274.28;1741498;81;21492;-69
2022/10/13 04:37:53;;;;;;;11.95;7.40;;;;;;;8.80;84.44;101277.09;1728122;81;21609;-69
2022/10/13 04:40:21;;;;;;;13.67;7.47;;;;;;;8.98;83.62;101278.38;1730021;82;21002;-70
2022/10/13 04:42:47;;;;;;;9.95;7.67;;;;;;;9.07;82.62;101279.28;1730269;82;20977;-68
2022/10/13 04:45:13;;;;;;;14.68;8.20;;;;;;;9.08;82.15;101280.45;1731452;80;21057;-75
2022/10/13 04:47:42;;;;;;;17.67;7.63;;;;;;;9.06;82.08;101274.47;1731875;82;21545;-72
2022/10/13 04:50:08;;;;;;;;;;;;;;;9.01;82.04;101281.23;1733917;81;21032;-68
2022/10/13 04:52:35;;;;;;;11.53;7.43;;;;;;;8.97;82.25;101282.04;1723157;81;20168;-68
2022/10/13 04:55:02;;;;;;;15.70;7.40;;;;;;;8.90;82.57;101279.66;1732487;81;21060;-68
2022/10/13 04:57:28;;;;;;;14.27;7.33;;;;;;;8.90;82.57;101288.95;1731302;81;20969;-72
2022/10/13 04:59:54;;;;;;;21.35;8.45;;;;;;;8.88;82.50;101281.63;1731187;81;21123;-68
2022/10/13 05:02:21;;;;;;;12.43;7.97;;;;;;;8.90;82.48;101288.45;1731370;81;21549;-68
2022/10/13 05:04:47;;;;;;;17.83;9.60;;;;;;;8.90;82.55;101291.61;1732579;79;21078;-70
2022/10/13 05:07:15;;;;;;;20.67;7.97;;;;;;;8.90;82.36;101298.27;1726655;81;21049;-68
2022/10/13 05:09:42;;;;;;;13.77;8.27;;;;;;;8.88;82.46;101300.24;1731208;81;21086;-68
2022/10/13 05:12:09;;;;;;;10.73;7.47;;;;;;;8.86;82.33;101303.05;1731298;82;20991;-67
2022/10/13 05:14:36;;;;;;;;;;;;;;;8.85;82.40;101302.69;1733332;82;21073;-68
2022/10/13 05:17:05;;;;;;;13.77;7.73;;;;;;;8.85;82.38;101296.55;1725624;81;20478;-67
2022/10/13 05:19:32;;;;;;;12.57;8.93;;;;;;;8.80;82.54;101309.45;1729479;82;21062;-67
2022/10/13 05:22:00;;;;;;;14.00;8.37;;;;;;;8.78;82.40;101313.62;1730842;79;21683;-68
2022/10/13 05:24:37;;;;;;;20.02;8.65;;;;;;;8.77;82.79;101306.62;1731388;82;21025;-68
2022/10/13 05:27:08;;;;;;;13.97;9.10;;;;;;;8.77;82.69;101310.11;1731410;81;21541;-70
2022/10/13 05:29:35;;;;;;;19.33;9.97;;;;;;;8.77;82.77;101314.59;1727955;81;21390;-68
2022/10/13 05:32:02;;;;;;;22.33;9.17;;;;;;;8.77;82.87;101314.09;1736139;81;21052;-74
2022/10/13 05:34:28;;;;;;;14.87;8.33;;;;;;;8.78;82.92;101312.30;1730452;81;21479;-76
2022/10/13 05:36:54;;;;;;;;;;;;;;;8.80;82.78;101312.12;1734035;82;20989;-75
2022/10/13 05:39:21;;;;;;;16.10;7.83;;;;;;;8.82;82.72;101312.83;1729475;81;20170;-76
2022/10/13 05:41:47;;;;;;;;;;;;;;;8.81;82.89;101319.12;1729399;81;21379;-76
2022/10/13 05:44:16;;;;;;;16.17;8.70;;;;;;;8.83;82.81;101317.14;1733757;81;20186;-76
2022/10/13 05:46:45;;;;;;;14.23;10.33;;;;;;;8.76;83.00;101315.60;1725630;81;21072;-76
2022/10/13 05:49:11;;;;;;;17.83;11.30;;;;;;;8.77;83.14;101323.40;1731787;81;21441;-76
2022/10/13 05:51:42;;;;;;;19.25;11.93;;;;;;;8.79;83.14;101321.92;1731942;81;21017;-76
2022/10/13 05:54:19;;;;;;;16.30;10.23;;;;;;;8.83;83.50;101322.45;1714583;82;20993;-75
2022/10/13 05:56:53;;;;;;;14.70;9.35;;;;;;;8.87;83.83;101321.16;1730603;79;21069;-75
2022/10/13 05:59:22;;;;;;;13.60;8.60;;;;;;;8.94;83.74;101318.23;1707810;82;21043;-75
2022/10/13 06:01:50;;;;;;;14.50;8.73;;;;;;;9.01;83.87;101319.30;1734428;81;21005;-75
2022/10/13 06:04:21;;;;;;;13.63;9.20;;;;;;;9.08;83.64;101316.36;1729500;80;21028;-76
2022/10/13 06:06:48;;;;;;;15.83;9.63;;;;;;;9.16;82.89;101323.56;1742060;81;21097;-77
2022/10/13 06:09:15;;;;;;;14.57;8.47;;;;;;;9.20;82.56;101323.59;1737164;81;21100;-77
2022/10/13 06:11:42;;;;;;;17.23;8.57;;;;;;;9.23;82.31;101329.95;1744198;81;21449;-76
2022/10/13 06:14:10;;;;;;;14.83;7.60;;;;;;;9.28;82.02;101322.31;1739987;81;21029;-78
2022/10/13 06:16:36;;;;;;;11.50;8.00;;;;;;;9.32;81.52;101325.50;1735896;81;21121;-79
2022/10/13 06:19:05;;;;;;;13.50;9.17;;;;;;;9.35;81.38;101326.53;1731868;81;21092;-77
2022/10/13 06:21:34;;;;;;;13.73;8.27;;;;;;;9.38;81.27;101331.55;1728980;81;21051;-75
2022/10/13 06:24:01;;;;;;;17.47;9.53;;;;;;;9.41;81.34;101333.05;1731467;81;21045;-75
2022/10/13 06:26:28;;;;;;;14.57;8.37;;;;;;;9.49;83.19;101327.30;1724365;81;20990;-74
2022/10/13 06:28:54;;;;;;;12.68;9.13;;;;;;;9.60;81.58;101335.48;1707364;82;21578;-74
2022/10/13 06:31:21;;;;;;;15.00;8.53;;;;;;;9.63;80.86;101335.69;1731558;81;20993;-75
2022/10/13 06:33:48;;;;;;;13.05;8.63;;;;;;;9.64;80.55;101334.68;1728052;81;20981;-70
2022/10/13 06:36:14;;;;;;;15.23;8.87;;;;;;;9.64;80.48;101333.34;1730848;82;21008;-72
2022/10/13 06:38:40;;;;;;;18.42;10.28;;;;;;;9.66;80.50;101330.89;1728886;82;21051;-77
2022/10/13 06:41:07;;;;;;;12.58;7.47;;;;;;;9.66;80.21;101336.69;1710864;82;20981;-76
2022/10/13 06:43:38;;;;;;;11.87;7.57;;;;;;;9.68;80.53;101336.89;1729889;82;21001;-77
2022/10/13 06:46:04;;;;;;;16.83;9.13;;;;;;;9.75;80.92;101335.73;1727372;82;21078;-77
2022/10/13 06:48:31;;;;;;;;;;;;;;;9.85;80.53;101332.48;1733872;81;21002;-75
2022/10/13 06:51:06;;;;;;;16.40;11.90;;;;;;;9.92;79.83;101336.15;1719771;82;20418;-77
2022/10/13 06:53:35;;;;;;;16.77;10.30;;;;;;;9.94;79.82;101338.19;1732062;81;21487;-76
2022/10/13 06:56:04;;;;;;;17.00;10.27;;;;;;;9.97;78.61;101338.35;1732386;81;21005;-75
2022/10/13 06:58:31;;;;;;;18.63;9.63;;;;;;;9.97;78.85;101333.53;1730657;81;20981;-77
2022/10/13 07:00:57;;;;;;;14.63;9.13;;;;;;;9.97;79.23;101335.69;1726738;81;21033;-77
2022/10/13 07:03:24;;;;;;;17.60;9.90;;;;;;;10.00;79.22;101330.53;1732161;81;20988;-77
2022/10/13 07:05:51;;;;;;;11.20;8.85;;;;;;;10.01;78.91;101338.36;1729701;81;21573;-77
2022/10/13 07:08:18;;;;;;;16.83;8.63;;;;;;;10.05;78.97;101337.05;1728190;81;21109;-75
2022/10/13 07:10:44;;;;;;;;;;;;;;;10.08;78.87;101331.91;1732812;81;20958;-76
2022/10/13 07:13:10;;;;;;;13.07;8.03;;;;;;;10.14;79.11;101337.41;1731666;81;20103;-77
2022/10/13 07:15:39;;;;;;;14.80;9.07;;;;;;;10.15;79.17;101330.25;1727839;81;21053;-78
2022/10/13 07:18:06;;;;;;;17.30;9.80;;;;;;;10.22;78.96;101327.28;1732215;81;21052;-78
2022/10/13 07:20:34;;;;;;;18.03;9.30;;;;;;;10.31;78.69;101335.67;1732588;81;21066;-77
2022/10/13 07:23:00;;;;;;;;;;;;;;;10.37;78.72;101332.86;1732950;82;21040;-76
2022/10/13 07:25:26;;;;;;;18.87;9.50;;;;;;;10.41;78.12;101333.37;1732184;82;20163;-77
2022/10/13 07:27:52;;;;;;;17.75;9.28;;;;;;;10.35;78.14;101334.02;1731263;81;20993;-76
2022/10/13 07:30:19;;;;;;;14.18;9.83;;;;;;;10.36;78.44;101330.34;1737373;81;21502;-76
2022/10/13 07:32:47;;;;;;;15.93;9.30;;;;;;;10.40;78.51;101334.38;1731462;81;21099;-77
2022/10/13 07:35:14;;;;;;;21.53;10.03;;;;;;;10.46;78.35;101334.55;1727790;81;20996;-79
2022/10/13 07:37:40;;;;;;;13.77;8.47;;;;;;;10.51;77.88;101331.41;1731663;82;21606;-77
2022/10/13 07:40:08;;;;;;;13.48;9.43;;;;;;;10.58;77.98;101328.91;1731218;82;21120;-76
2022/10/13 07:42:35;;;;;;;15.50;8.70;;;;;;;10.64;77.54;101334.43;1731965;81;21052;-75
2022/10/13 07:45:00;;;;;;;;;;;;;;;10.74;77.66;101330.27;1734121;82;21033;-78
2022/10/13 07:47:28;;;;;;;14.60;10.28;;;;;;;10.83;77.24;101334.61;1731681;81;20106;-78
2022/10/13 07:49:54;;;;;;;16.30;10.27;;;;;;;10.91;77.11;101333.78;1732117;81;21481;-76
2022/10/13 07:52:22;;;;;;;14.50;8.83;;;;;;;10.98;76.98;101336.13;1732281;81;21093;-82
2022/10/13 07:54:50;;;;;;;;;;;;;;;11.05;76.54;101335.77;1731856;81;21021;-77
2022/10/13 07:57:17;;;;;;;19.32;9.35;;;;;;;11.09;75.59;101336.27;1730066;81;20102;-77
2022/10/13 07:59:43;;;;;;;18.70;9.30;;;;;;;11.09;75.78;101337.61;1732231;81;21517;-77
2022/10/13 08:02:11;;;;;;;10.47;8.57;;;;;;;11.17;76.04;101336.77;1729216;81;21525;-78
2022/10/13 08:04:38;;;;;;;13.03;11.53;;;;;;;11.26;75.58;101332.61;1730055;82;20993;-79
2022/10/13 08:07:05;;;;;;;26.77;13.83;;;;;;;11.37;74.79;101333.25;1703985;82;21157;-78
2022/10/13 08:09:32;;;;;;;17.98;11.93;;;;;;;11.43;73.91;101332.56;1730352;82;21032;-77
2022/10/13 08:11:59;;;;;;;16.70;10.58;;;;;;;11.48;73.92;101336.39;1729542;82;21494;-77
2022/10/13 08:14:28;;;;;;;17.07;10.13;;;;;;;11.54;73.36;101340.22;1732659;81;21016;-75
2022/10/13 08:16:57;;;;;;;15.55;8.80;;;;;;;11.59;73.28;101333.05;1729316;81;21089;-75
2022/10/13 08:19:25;;;;;;;15.60;9.63;;;;;;;11.29;72.78;101273.53;1717370;82;20994;-79
2022/10/13 08:21:54;;;;;;;16.45;9.48;;;;;;;11.67;72.68;101333.84;1731500;81;20993;-82
2022/10/13 08:24:24;;;;;;;18.42;11.35;;;;;;;11.66;71.81;101332.20;1707384;83;21124;-79
2022/10/13 08:26:50;;;;;;;16.40;9.23;;;;;;;11.62;71.59;101330.02;1731698;81;20989;-72
2022/10/13 08:29:18;;;;;;;14.33;9.78;;;;;;;11.60;71.42;101342.23;1730519;81;21017;-79
2022/10/13 08:31:44;;;;;;;;;;;;;;;11.58;71.55;101337.53;1727334;81;21529;-78
2022/10/13 08:34:11;;;;;;;12.37;9.35;;;;;;;11.61;71.52;101335.05;1731619;81;20602;-75
2022/10/13 08:36:38;;;;;;;17.37;8.98;;;;;;;11.57;71.83;101331.06;1730463;81;21072;-77
2022/10/13 08:39:06;;;;;;;13.28;9.10;;;;;;;11.62;71.73;101332.22;1722809;82;21327;-77
2022/10/13 08:41:40;;;;;;;11.80;8.70;;;;;;;11.65;71.69;101334.52;1730616;82;21013;-78
2022/10/13 08:44:23;;;;;;;20.20;8.48;;;;;;;11.65;71.82;101335.03;1731456;82;21061;-80
2022/10/13 08:47:14;;;;;;;12.88;8.18;;;;;;;11.66;71.75;101336.72;1727825;82;21731;-79
2022/10/13 08:49:41;;;;;;;17.27;8.58;;;;;;;11.61;71.22;101330.53;1727019;81;21481;-79
2022/10/13 08:52:21;;;;;;;16.48;8.35;;;;;;;11.59;71.42;101337.06;1731315;81;21498;-78
2022/10/13 08:54:50;;;;;;;20.48;8.15;;;;;;;11.59;71.70;101329.88;1729353;82;21045;-78
2022/10/13 08:57:19;;;;;;;17.80;8.70;;;;;;;11.64;71.63;101334.20;1726667;81;21548;-78
2022/10/13 08:59:49;;;;;;;11.43;6.90;;;;;;;11.67;71.41;101329.84;1708091;83;21544;-76
2022/10/13 09:02:33;;;;;;;16.42;7.53;;;;;;;11.74;71.22;101341.20;1730514;81;21056;-75
2022/10/13 09:05:08;;;;;;;14.93;7.42;;;;;;;11.81;70.87;101343.01;1730547;81;21017;-75
2022/10/13 09:07:38;;;;;;;18.02;7.53;;;;;;;11.85;70.69;101338.98;1730190;81;21572;-79
2022/10/13 09:10:07;;;;;;;20.35;10.90;;;;;;;11.90;70.21;101341.66;1688096;83;21549;-80
2022/10/13 09:12:34;;;;;;;26.42;10.58;;;;;;;11.91;70.37;101343.34;1708702;82;21040;-84
2022/10/13 09:15:11;;;;;;;23.20;11.30;;;;;;;11.92;70.00;101341.81;1723862;81;21088;-80
2022/10/13 09:17:43;;;;;;;18.67;10.32;;;;;;;11.91;70.11;101349.52;1723545;81;20957;-81
2022/10/13 09:23:29;;;;;;;24.18;12.07;;;;;;;12.00;70.71;101340.47;1810424;77;22348;-82
2022/10/13 09:26:01;;;;;;;23.25;11.40;;;;;;;12.01;70.50;101338.11;1740381;78;21066;-82
2022/10/13 09:28:31;;;;;;;22.42;11.25;;;;;;;12.04;70.05;101339.62;1745518;81;21070;-81
2022/10/13 09:31:12;;;;;;;24.65;11.97;;;;;;;12.05;69.92;101342.61;1766285;80;21015;-82
2022/10/13 09:33:41;;;;;;;26.73;11.65;;;;;;;12.10;69.81;101343.44;1744774;80;21470;-83
2022/10/13 09:36:16;;;;;;;20.68;11.83;;;;;;;12.11;69.01;101339.26;1729684;81;21045;-83
2022/10/13 09:38:56;;;;;;;23.57;11.57;;;;;;;12.11;68.82;101337.07;1705064;81;21433;-81
2022/10/13 09:41:26;;;;;;;19.32;10.60;;;;;;;12.14;68.88;101332.72;1725546;80;21022;-83
2022/10/13 09:44:01;;;;;;;18.75;9.05;;;;;;;12.18;68.33;101332.70;1752643;80;21545;-82
2022/10/13 09:46:46;;;;;;;21.57;10.15;;;;;;;12.21;68.14;101331.84;1747638;80;21040;-84
2022/10/13 09:49:41;;;;;;;22.37;9.35;;;;;;;12.22;68.07;101325.52;1681501;83;21068;-83
2022/10/13 09:52:16;;;;;;;19.17;10.93;;;;;;;12.30;67.85;101329.13;1654303;82;21037;-81
2022/10/13 09:54:52;;;;;;;19.05;11.08;;;;;;;12.36;68.12;101333.27;1689999;83;21072;-81
2022/10/13 09:57:40;;;;;;;19.17;8.85;;;;;;;12.44;67.96;101327.05;1691964;82;21524;-82
2022/10/13 10:00:25;;;;;;;21.40;8.53;;;;;;;12.46;67.04;101325.03;1664557;82;21174;-85
2022/10/13 10:03:25;;;;;;;14.65;6.58;;;;;;;12.46;66.99;101326.36;1663140;85;21050;-82
2022/10/13 10:06:02;;;;;;;16.17;4.87;;;;;;;12.48;66.68;101318.17;1629309;87;21117;-83
2022/10/13 10:08:52;;;;;;;8.03;5.08;;;;;;;12.48;66.31;101320.33;1627132;86;21062;-83
2022/10/13 10:11:45;;;;;;;9.18;4.72;;;;;;;12.46;66.89;101317.00;1652137;85;21151;-84
2022/10/13 10:14:28;;;;;;;15.93;5.03;;;;;;;12.45;66.37;101322.87;1662200;85;21100;-83
2022/10/13 10:17:37;;;;;;;9.98;5.55;;;;;;;12.41;66.23;101319.37;1690085;84;21004;-81
2022/10/13 10:20:32;;;;;;;10.68;5.17;;;;;;;12.35;66.75;101318.74;1683636;84;21690;-75
2022/10/13 10:23:17;;;;;;;13.45;4.53;;;;;;;12.32;67.20;101317.75;1684459;84;21115;-76
2022/10/13 10:25:58;;;;;;;10.03;5.10;;;;;;;12.37;68.01;101319.39;1594249;87;21581;-75
2022/10/13 10:28:40;;;;;;;12.82;5.30;;;;;;;12.43;67.50;101319.54;1646904;86;21106;-76
2022/10/13 10:31:30;;;;;;;8.38;4.50;;;;;;;12.46;67.50;101312.99;1634358;86;21597;-79
2022/10/13 10:34:22;;;;;;;11.68;5.80;;;;;;;12.50;67.50;101311.63;1658229;85;21046;-75
2022/10/13 10:36:57;;;;;;;7.28;3.90;;;;;;;12.53;67.06;101312.62;1636980;85;21089;-75
2022/10/13 10:39:31;;;;;;;10.15;3.65;;;;;;;12.54;67.69;101306.24;1681629;84;21026;-74
2022/10/13 10:42:06;;;;;;;7.87;3.30;;;;;;;12.56;68.10;101308.75;1668730;84;21111;-75
2022/10/13 10:44:38;;;;;;;9.18;4.08;;;;;;;12.59;67.89;101303.88;1673847;84;21464;-78
2022/10/13 10:47:24;;;;;;;11.75;3.72;;;;;;;12.62;67.49;101307.55;1669610;84;21579;-78
2022/10/13 10:50:04;;;;;;;7.25;2.40;;;;;;;12.64;67.58;101304.19;1666358;85;21068;-83
2022/10/13 10:52:57;;;;;;;11.80;2.33;;;;;;;12.66;66.96;101300.82;1625377;86;21010;-84
2022/10/13 10:55:53;;;;;;;7.12;3.20;;;;;;;12.68;67.24;101298.45;1680572;84;20977;-83
2022/10/13 10:58:40;;;;;;;10.35;2.55;;;;;;;12.64;67.05;101300.17;1652592;85;21006;-75
2022/10/13 11:01:30;;;;;;;6.50;2.87;;;;;;;12.61;67.31;101292.49;1673666;84;21083;-74
2022/10/13 11:04:41;;;;;;;5.37;2.20;;;;;;;12.57;67.04;101291.19;1696590;84;21096;-76
2022/10/13 11:07:28;;;;;;;5.05;2.08;;;;;;;12.50;67.62;101288.89;1695487;83;21060;-74
2022/10/13 11:10:02;;;;;;;8.73;2.92;;;;;;;12.49;67.96;101295.27;1696232;83;21044;-76
2022/10/13 11:12:55;;;;;;;8.58;2.08;;;;;;;12.51;68.26;101294.59;1698073;83;21077;-75
2022/10/13 11:15:32;;;;;;;13.75;2.95;;;;;;;12.56;68.12;101294.86;1671073;84;21572;-77
2022/10/13 11:17:59;;;;;;;10.48;2.72;;;;;;;12.53;68.34;101296.57;1694862;83;21088;-75
2022/10/13 11:20:38;;;;;;;6.90;2.55;;;;;;;12.53;68.41;101297.09;1648361;84;21025;-81
2022/10/13 11:23:18;;;;;;;6.15;2.33;;;;;;;12.56;68.96;101298.88;1657449;85;21058;-82
2022/10/13 11:25:47;;;;;;;7.47;2.47;;;;;;;12.59;67.92;101297.19;1659222;84;21038;-77
2022/10/13 11:28:26;;;;;;;6.90;4.03;;;;;;;12.63;68.29;101290.98;1669466;85;21051;-75
2022/10/13 11:31:15;;;;;;;7.72;2.85;;;;;;;12.64;68.38;101292.15;1666453;85;21940;-75
2022/10/13 11:33:47;;;;;;;12.45;3.40;;;;;;;12.62;67.87;101298.66;1666976;84;21420;-75
2022/10/13 11:36:47;;;;;;;5.78;2.37;;;;;;;12.52;68.07;101290.06;1664275;84;20945;-75
2022/10/13 11:39:31;;;;;;;6.05;4.42;;;;;;;12.44;67.64;101290.95;1668609;84;20978;-71
2022/10/13 11:42:37;;;;;;;9.95;3.60;;;;;;;12.34;67.83;101296.53;1661512;84;21078;-76
2022/10/13 11:45:27;;;;;;;9.35;3.62;;;;;;;12.30;68.22;101295.70;1666844;84;21086;-76
2022/10/13 11:48:25;;;;;;;11.12;3.52;;;;;;;12.30;68.52;101291.22;1652624;85;21047;-76
2022/10/13 11:51:32;;;;;;;5.72;3.35;;;;;;;12.31;68.93;101297.39;1624659;87;21070;-75
2022/10/13 11:54:33;;;;;;;8.30;2.60;;;;;;;12.31;69.04;101295.53;1609863;87;21114;-77
2022/10/13 11:56:59;;;;;;;7.15;3.45;;;;;;;12.33;69.02;101283.33;1575611;86;21082;-77